Time;durP1;ratioP1;P1;durP2;ratioP2;P2;SDS_P1;SDS_P2;PMS_P1;PMS_P2;Temp;Humidity;BMP_temperature;BMP_pressure;BME280_temperature;BME280_humidity;BME280_pressure;Samples;Min_cycle;Max_cycle;Signal;HPM_P1;HPM_P2
2022/10/13 00:04:28;;;;;;;36.50;17.40;;;;;;;3.60;90.61;99499.02;214393;1312;22467;-73
2022/10/13 00:09:29;;;;;;;39.50;19.40;;;;;;;3.58;90.58;99500.20;214363;1310;22473;-73
2022/10/13 00:14:31;;;;;;;38.20;18.70;;;;;;;3.53;90.52;99494.08;214400;1310;22489;-73
2022/10/13 00:19:33;;;;;;;33.10;16.40;;;;;;;3.49;90.57;99497.45;214528;1310;23208;-73
2022/10/13 00:24:34;;;;;;;37.80;18.30;;;;;;;3.47;90.72;99490.98;214396;1310;24191;-73
2022/10/13 00:29:36;;;;;;;41.50;17.60;;;;;;;3.42;90.88;99489.75;214398;1310;24240;-74
2022/10/13 00:34:38;;;;;;;38.30;18.10;;;;;;;3.38;90.78;99488.75;214581;1310;22486;-73
2022/10/13 00:39:40;;;;;;;38.00;18.40;;;;;;;3.35;90.70;99485.79;214325;1310;22475;-74
2022/10/13 00:44:59;;;;;;;37.80;17.50;;;;;;;3.32;90.90;99484.12;214459;1310;25302;-73
2022/10/13 00:50:02;;;;;;;34.70;18.30;;;;;;;3.30;91.16;99484.02;214452;1310;22539;-73
2022/10/13 00:55:06;;;;;;;32.20;16.70;;;;;;;3.26;91.01;99482.80;214459;1310;24261;-73
2022/10/13 01:00:09;;;;;;;35.10;16.40;;;;;;;3.22;91.02;99481.63;214495;1310;22465;-74
2022/10/13 01:05:10;;;;;;;38.40;17.00;;;;;;;3.18;91.07;99469.88;214443;1310;22512;-73
2022/10/13 01:10:15;;;;;;;29.50;15.00;;;;;;;3.16;91.32;99463.73;214456;1310;22488;-73
2022/10/13 01:15:16;;;;;;;29.70;14.50;;;;;;;3.20;91.71;99463.89;214473;1310;25273;-73
2022/10/13 01:21:05;;;;;;;34.10;15.80;;;;;;;3.26;91.87;99462.99;214562;1310;22462;-73
2022/10/13 01:26:25;;;;;;;32.90;15.90;;;;;;;3.31;91.95;99459.19;213086;1317;25409;-72
2022/10/13 01:31:39;;;;;;;38.00;17.00;;;;;;;3.31;91.99;99449.41;214199;1310;22693;-73
2022/10/13 01:37:02;;;;;;;36.30;16.30;;;;;;;3.29;91.75;99446.80;214509;1310;25356;-73
2022/10/13 01:42:12;;;;;;;26.60;13.80;;;;;;;3.24;91.72;99444.05;214574;1310;25928;-73
2022/10/13 01:47:15;;;;;;;30.80;14.40;;;;;;;3.23;91.85;99447.55;214376;1310;22966;-74
2022/10/13 01:52:20;;;;;;;32.90;15.80;;;;;;;3.17;91.62;99447.80;214386;1305;22464;-73
2022/10/13 01:57:31;;;;;;;35.80;15.60;;;;;;;3.11;91.65;99443.92;214604;1310;24276;-73
2022/10/13 02:02:46;;;;;;;28.70;14.60;;;;;;;3.06;91.79;99442.80;214362;1310;25321;-72
2022/10/13 02:07:55;;;;;;;32.20;15.70;;;;;;;3.01;91.84;99442.66;214477;1310;139864;-73
2022/10/13 02:13:03;;;;;;;36.60;15.90;;;;;;;2.95;91.86;99441.91;214379;1295;26266;-73
2022/10/13 02:18:07;;;;;;;33.10;15.70;;;;;;;2.88;91.84;99442.69;214409;1310;22490;-73
2022/10/13 02:23:15;;;;;;;31.60;15.70;;;;;;;2.81;91.89;99437.02;214435;1310;22550;-74
2022/10/13 02:28:18;;;;;;;53.40;25.00;;;;;;;2.71;91.71;99428.61;214432;1310;23201;-73
2022/10/13 02:33:20;;;;;;;46.30;21.30;;;;;;;2.60;91.72;99419.38;214526;1310;22847;-73
2022/10/13 02:38:21;;;;;;;46.40;20.00;;;;;;;2.55;92.01;99418.38;214638;1310;25286;-73
2022/10/13 02:43:23;;;;;;;40.50;20.80;;;;;;;2.54;92.33;99418.88;214368;1310;22483;-73
2022/10/13 02:48:25;;;;;;;43.10;21.50;;;;;;;2.55;92.48;99418.23;214419;1310;22562;-73
2022/10/13 02:53:27;;;;;;;39.40;19.00;;;;;;;2.55;92.53;99408.59;214455;1310;24261;-73
2022/10/13 02:58:29;;;;;;;39.00;18.50;;;;;;;2.54;92.57;99399.39;214403;1310;24288;-74
2022/10/13 03:03:31;;;;;;;34.00;16.40;;;;;;;2.52;92.71;99396.84;214541;1308;22479;-72
2022/10/13 03:08:34;;;;;;;33.40;16.40;;;;;;;2.55;92.98;99389.03;214460;1310;22547;-73
2022/10/13 03:13:36;;;;;;;25.40;14.30;;;;;;;2.55;92.87;99391.55;214512;1310;25303;-73
2022/10/13 03:18:40;;;;;;;36.00;16.00;;;;;;;2.51;92.71;99396.53;214431;1310;24435;-73
2022/10/13 03:23:41;;;;;;;31.50;15.10;;;;;;;2.48;92.72;99399.66;214552;1310;22615;-73
2022/10/13 03:28:47;;;;;;;39.00;16.70;;;;;;;2.45;92.83;99396.09;214393;1310;22532;-73
2022/10/13 03:33:50;;;;;;;26.80;14.60;;;;;;;2.43;92.81;99386.88;214534;1310;23702;-73
2022/10/13 03:38:52;;;;;;;27.80;14.80;;;;;;;2.36;92.62;99386.52;214590;1310;24452;-74
2022/10/13 03:43:54;;;;;;;28.80;15.70;;;;;;;2.29;92.85;99388.64;214555;1310;22735;-73
2022/10/13 03:48:56;;;;;;;37.80;17.50;;;;;;;2.24;92.95;99390.64;214345;1310;22668;-73
2022/10/13 03:53:57;;;;;;;30.70;16.70;;;;;;;2.18;93.15;99396.04;214495;1310;22968;-74
2022/10/13 03:59:00;;;;;;;39.50;17.20;;;;;;;2.15;93.22;99394.55;214554;1310;24261;-73
2022/10/13 04:04:02;;;;;;;34.70;16.00;;;;;;;2.11;93.08;99394.17;214369;1310;25059;-72
2022/10/13 04:09:04;;;;;;;40.00;18.30;;;;;;;2.08;93.19;99391.86;214408;1310;25274;-74
2022/10/13 04:14:06;;;;;;;38.80;18.90;;;;;;;2.07;93.66;99402.05;214533;1306;23092;-74
2022/10/13 04:19:11;;;;;;;37.00;18.00;;;;;;;2.10;93.90;99404.04;214509;1310;22472;-73
2022/10/13 04:24:13;;;;;;;34.80;18.20;;;;;;;2.09;93.78;99402.05;214264;1310;22466;-73
2022/10/13 04:29:15;;;;;;;27.70;15.80;;;;;;;2.07;93.76;99399.20;214407;1310;24109;-74
2022/10/13 04:34:17;;;;;;;35.90;16.90;;;;;;;2.07;93.92;99398.98;214487;1310;26487;-73
2022/10/13 04:39:19;;;;;;;37.80;18.70;;;;;;;2.08;94.04;99397.36;214559;1309;22530;-74
2022/10/13 04:44:22;;;;;;;43.70;20.50;;;;;;;2.07;93.99;99397.61;214366;1310;26368;-73
2022/10/13 04:49:24;;;;;;;44.60;21.80;;;;;;;2.06;93.98;99395.70;214443;1310;22472;-73
2022/10/13 04:54:26;;;;;;;49.70;24.70;;;;;;;2.05;94.04;99395.67;214501;1310;22491;-74
2022/10/13 04:59:28;;;;;;;48.90;21.60;;;;;;;2.01;93.99;99389.77;214374;1310;25471;-73
2022/10/13 05:04:29;;;;;;;41.90;19.50;;;;;;;1.99;94.19;99392.63;214411;1310;24477;-73
2022/10/13 05:09:31;;;;;;;37.70;20.10;;;;;;;1.97;94.11;99390.09;214463;1310;24155;-73
2022/10/13 05:14:33;;;;;;;29.70;15.40;;;;;;;1.95;94.19;99390.61;214495;1310;22485;-72
2022/10/13 05:19:37;;;;;;;33.00;16.80;;;;;;;1.97;94.35;99385.34;214603;1304;22486;-73
2022/10/13 05:24:39;;;;;;;30.00;15.30;;;;;;;1.99;94.37;99381.65;214429;1310;22494;-72
2022/10/13 05:29:41;;;;;;;33.10;16.70;;;;;;;2.04;94.61;99372.41;214507;1310;24257;-73
2022/10/13 05:34:43;;;;;;;36.40;19.00;;;;;;;2.13;94.77;99377.86;214377;1310;22475;-73
2022/10/13 05:39:45;;;;;;;35.00;18.00;;;;;;;2.26;94.93;99390.27;214523;1310;22472;-74
2022/10/13 05:44:49;;;;;;;33.00;17.90;;;;;;;2.32;94.87;99388.30;214665;1280;24341;-72
2022/10/13 05:49:51;;;;;;;38.00;18.60;;;;;;;2.37;94.79;99385.86;215121;1286;22728;-73
2022/10/13 05:54:57;;;;;;;45.20;20.10;;;;;;;2.42;94.75;99390.36;215145;1281;22533;-73
2022/10/13 06:00:09;;;;;;;30.60;17.30;;;;;;;2.50;94.80;99395.88;215074;1281;22586;-73
2022/10/13 06:05:18;;;;;;;32.10;17.80;;;;;;;2.65;95.04;99398.45;214902;1280;22925;-71
2022/10/13 06:10:24;;;;;;;40.30;22.90;;;;;;;2.78;94.96;99391.95;215314;1279;25462;-72
2022/10/13 06:15:26;;;;;;;35.70;19.50;;;;;;;2.88;94.95;99390.60;214830;1286;22977;-73
2022/10/13 06:20:30;;;;;;;35.70;20.80;;;;;;;3.01;95.16;99390.36;214892;1286;22585;-73
2022/10/13 06:25:31;;;;;;;40.80;21.90;;;;;;;3.14;95.25;99385.46;214832;1279;22696;-72
2022/10/13 06:30:33;;;;;;;39.70;19.80;;;;;;;3.31;95.25;99382.40;214910;1286;23358;-72
2022/10/13 06:35:35;;;;;;;37.30;19.90;;;;;;;3.52;95.78;99386.54;214858;1280;22474;-72
2022/10/13 06:40:37;;;;;;;41.70;21.30;;;;;;;3.78;96.09;99384.63;214766;1280;22491;-73
2022/10/13 06:45:39;;;;;;;33.70;20.10;;;;;;;4.04;96.06;99385.23;214865;1286;22513;-74
2022/10/13 06:50:40;;;;;;;45.80;23.10;;;;;;;4.26;96.13;99389.27;214665;1281;22501;-74
2022/10/13 06:55:43;;;;;;;36.70;21.90;;;;;;;4.51;96.34;99380.52;214757;1280;22475;-74
2022/10/13 07:00:51;;;;;;;47.60;25.00;;;;;;;4.77;96.17;99380.05;214598;1277;22478;-76
2022/10/13 07:05:53;;;;;;;42.50;23.50;;;;;;;5.00;95.69;99373.85;214925;1281;24285;-74
2022/10/13 07:10:55;;;;;;;43.60;23.50;;;;;;;5.27;95.80;99374.34;214899;1288;22477;-74
2022/10/13 07:15:56;;;;;;;38.30;21.50;;;;;;;5.52;95.71;99379.50;214778;1288;22507;-75
2022/10/13 07:20:59;;;;;;;43.30;23.60;;;;;;;5.72;95.20;99379.41;214850;1280;24443;-75
2022/10/13 07:26:06;;;;;;;40.80;23.60;;;;;;;5.93;94.94;99374.48;214698;1288;22571;-74
2022/10/13 07:31:15;;;;;;;41.00;23.60;;;;;;;6.22;95.04;99374.77;214923;1309;24253;-74
2022/10/13 07:36:18;;;;;;;46.10;25.30;;;;;;;6.48;95.02;99365.52;214820;1280;22531;-73
2022/10/13 07:41:20;;;;;;;39.60;23.00;;;;;;;6.71;94.58;99366.23;214600;1291;23694;-75
2022/10/13 07:46:22;;;;;;;45.90;27.10;;;;;;;6.95;94.64;99365.19;214786;1309;22527;-73
2022/10/13 07:51:24;;;;;;;44.50;24.40;;;;;;;7.19;94.51;99361.06;214759;1309;22579;-73
2022/10/13 07:56:26;;;;;;;50.50;26.50;;;;;;;7.43;94.27;99353.81;214696;1294;22693;-73
2022/10/13 08:01:29;;;;;;;38.60;23.00;;;;;;;7.67;94.06;99347.26;214834;1281;22631;-73
2022/10/13 08:06:30;;;;;;;51.70;26.30;;;;;;;7.94;93.72;99345.48;214837;1303;22579;-72
2022/10/13 08:11:32;;;;;;;44.20;25.90;;;;;;;8.19;93.42;99349.20;214769;1309;22489;-73
2022/10/13 08:16:34;;;;;;;46.00;27.10;;;;;;;8.43;93.30;99347.30;214726;1309;24302;-73
2022/10/13 08:21:37;;;;;;;32.00;19.80;;;;;;;8.67;92.98;99348.08;214823;1291;24238;-73
2022/10/13 08:26:59;;;;;;;41.40;20.80;;;;;;;8.82;92.02;99338.02;214770;1309;22482;-72
2022/10/13 08:32:00;;;;;;;37.30;22.80;;;;;;;8.98;91.86;99336.73;214687;1303;23740;-72
2022/10/13 08:37:03;;;;;;;36.60;23.60;;;;;;;9.19;92.10;99327.96;214814;1307;23747;-73
2022/10/13 08:42:17;;;;;;;41.40;24.00;;;;;;;9.44;91.98;99325.52;214787;1304;23741;-73
2022/10/13 08:47:26;;;;;;;40.00;23.80;;;;;;;9.72;91.91;99326.27;214827;1309;22942;-73
2022/10/13 08:52:42;;;;;;;35.30;20.80;;;;;;;10.03;91.77;99324.67;214769;1287;25317;-73
2022/10/13 08:57:44;;;;;;;33.10;20.10;;;;;;;10.32;91.36;99323.15;214527;1283;22944;-72
2022/10/13 09:02:48;;;;;;;30.20;18.40;;;;;;;10.56;90.75;99317.02;214947;1309;23760;-72
2022/10/13 09:07:53;;;;;;;25.50;14.50;;;;;;;10.76;90.23;99313.93;214928;1309;22557;-72
2022/10/13 09:12:57;;;;;;;26.30;16.50;;;;;;;10.96;89.71;99305.08;215100;1285;22593;-72
2022/10/13 09:18:11;;;;;;;24.30;14.40;;;;;;;11.19;89.72;99298.92;214841;1309;22472;-73
2022/10/13 09:23:21;;;;;;;24.60;16.60;;;;;;;11.43;89.22;99298.90;214824;1281;22464;-72
2022/10/13 09:28:26;;;;;;;;;;;;;;;11.64;88.59;99296.14;214707;1290;24364;-73
2022/10/13 09:33:28;;;;;;;29.10;16.50;;;;;;;11.88;88.38;99294.27;214661;1309;22627;-73
2022/10/13 09:38:30;;;;;;;30.30;15.70;;;;;;;12.08;87.71;99290.80;214743;1287;22469;-73
2022/10/13 09:43:33;;;;;;;29.50;16.70;;;;;;;12.29;87.46;99288.36;214664;1293;22557;-75
2022/10/13 09:48:35;;;;;;;30.50;16.10;;;;;;;12.52;87.09;99283.96;214646;1310;23264;-74
2022/10/13 09:53:39;;;;;;;19.60;12.50;;;;;;;12.74;86.58;99290.59;214544;1307;22485;-73
2022/10/13 09:58:50;;;;;;;22.20;14.50;;;;;;;12.94;85.89;99283.20;214479;1310;22480;-73
2022/10/13 10:03:54;;;;;;;14.70;10.30;;;;;;;13.15;85.57;99279.35;214738;1309;26440;-73
2022/10/13 10:09:26;;;;;;;16.80;10.00;;;;;;;13.38;84.69;99279.87;215090;1293;25224;-73
2022/10/13 10:14:35;;;;;;;20.40;11.90;;;;;;;13.61;83.63;99271.49;214659;1284;22504;-73
2022/10/13 10:19:52;;;;;;;16.90;9.80;;;;;;;13.80;83.21;99265.52;214737;1287;22509;-73
2022/10/13 10:25:21;;;;;;;17.80;9.70;;;;;;;14.01;82.49;99258.20;214920;1286;25227;-73
2022/10/13 10:30:24;;;;;;;14.60;9.20;;;;;;;14.18;81.51;99258.94;215116;1280;25456;-72
2022/10/13 10:35:43;;;;;;;15.90;7.20;;;;;;;14.33;81.37;99253.69;215117;1277;25321;-72
2022/10/13 10:41:03;;;;;;;10.80;6.70;;;;;;;14.53;80.24;99247.66;215010;1294;25398;-72
2022/10/13 10:46:10;;;;;;;;;;;;;;;14.71;80.26;99247.66;215006;1286;25551;-73
2022/10/13 10:51:13;;;;;;;9.20;6.30;;;;;;;14.90;79.08;99239.59;214947;1280;24393;-79
2022/10/13 10:56:30;;;;;;;8.50;5.40;;;;;;;15.05;78.85;99235.29;215116;1280;22469;-74
2022/10/13 11:01:45;;;;;;;11.00;5.70;;;;;;;15.21;77.63;99235.34;215160;1280;22448;-74
2022/10/13 11:06:47;;;;;;;10.50;6.30;;;;;;;15.30;76.25;99232.64;214854;1281;24430;-74
2022/10/13 11:11:48;;;;;;;10.50;7.10;;;;;;;15.42;75.25;99223.81;214945;1285;24060;-74
2022/10/13 11:17:05;;;;;;;10.90;7.10;;;;;;;15.55;75.90;99222.24;214675;1278;22470;-74
2022/10/13 11:22:13;;;;;;;9.80;6.80;;;;;;;15.56;74.38;99220.16;214966;1278;22518;-74
2022/10/13 11:27:14;;;;;;;15.00;9.10;;;;;;;15.49;74.44;99211.68;214957;1286;22491;-73
2022/10/13 11:32:29;;;;;;;18.50;11.00;;;;;;;15.64;75.16;99204.61;214883;1287;23674;-74
2022/10/13 11:37:56;;;;;;;13.70;7.50;;;;;;;15.82;74.85;99198.09;214955;1284;22474;-73
2022/10/13 11:43:08;;;;;;;8.70;6.50;;;;;;;15.95;74.17;99193.59;214871;1278;24401;-74
2022/10/13 11:48:50;;;;;;;11.00;6.60;;;;;;;16.06;74.04;99181.60;214785;1309;24077;-72
2022/10/13 11:54:03;;;;;;;9.70;6.60;;;;;;;16.26;72.98;99169.11;214882;1285;24234;-73
2022/10/13 11:59:33;;;;;;;10.70;7.10;;;;;;;16.41;73.03;99174.17;214901;1284;22589;-73
2022/10/13 12:04:36;;;;;;;12.70;7.60;;;;;;;16.72;72.37;99168.80;215172;1280;24329;-73
2022/10/13 12:09:53;;;;;;;13.20;7.60;;;;;;;16.94;72.56;99161.23;214990;1295;22507;-74
2022/10/13 12:14:56;;;;;;;13.90;8.80;;;;;;;17.05;71.87;99155.41;214948;1288;25390;-73
2022/10/13 12:20:20;;;;;;;13.90;10.10;;;;;;;16.97;70.43;99154.22;214925;1287;24344;-74
2022/10/13 12:25:25;;;;;;;15.10;9.20;;;;;;;16.92;71.24;99151.68;214790;1280;22470;-74
2022/10/13 12:30:36;;;;;;;20.20;11.80;;;;;;;16.90;71.33;99143.66;215088;1288;23138;-73
2022/10/13 12:35:38;;;;;;;16.10;10.90;;;;;;;16.84;71.14;99136.86;215096;1281;22501;-77
2022/10/13 12:40:40;;;;;;;15.50;9.70;;;;;;;16.84;72.06;99131.14;215196;1280;22476;-74
2022/10/13 12:45:42;;;;;;;20.20;10.80;;;;;;;16.88;72.14;99128.63;215006;1277;22468;-75
2022/10/13 12:50:44;;;;;;;19.80;11.60;;;;;;;16.90;72.46;99121.09;215010;1284;22989;-75
2022/10/13 12:56:00;;;;;;;17.90;11.60;;;;;;;16.97;72.59;99121.33;214918;1280;22491;-74
2022/10/13 13:01:19;;;;;;;16.10;10.80;;;;;;;17.00;72.66;99115.91;215073;1285;24301;-77
2022/10/13 13:06:31;;;;;;;17.50;11.10;;;;;;;17.02;72.14;99113.99;216469;1278;24286;-74
2022/10/13 13:11:36;;;;;;;18.10;11.80;;;;;;;16.98;71.57;99110.25;215136;1280;22555;-73
2022/10/13 13:16:38;;;;;;;15.70;10.00;;;;;;;16.94;71.65;99104.40;214971;1280;22598;-74
2022/10/13 13:21:39;;;;;;;18.60;10.50;;;;;;;16.87;70.91;99102.52;215005;1280;25084;-74
2022/10/13 13:26:45;;;;;;;14.20;10.00;;;;;;;16.86;71.54;99094.80;215050;1281;22533;-75
2022/10/13 13:31:46;;;;;;;17.90;9.90;;;;;;;16.87;71.94;99091.95;214971;1295;22671;-74
2022/10/13 13:36:49;;;;;;;14.70;10.30;;;;;;;16.89;72.13;99088.79;214916;1284;22487;-75
2022/10/13 13:41:51;;;;;;;17.70;10.30;;;;;;;16.90;72.21;99087.83;215005;1288;25578;-75
2022/10/13 13:46:52;;;;;;;14.30;9.90;;;;;;;16.88;72.32;99084.19;215020;1284;22616;-75
2022/10/13 13:51:57;;;;;;;19.40;9.90;;;;;;;16.84;71.81;99085.45;214865;1286;22593;-74
2022/10/13 13:56:59;;;;;;;15.40;10.20;;;;;;;16.72;71.72;99082.43;215131;1284;22498;-75
2022/10/13 14:02:01;;;;;;;15.80;10.30;;;;;;;16.60;71.96;99085.98;214939;1304;23777;-74
2022/10/13 14:07:04;;;;;;;19.50;11.00;;;;;;;16.50;72.13;99078.62;214725;1284;116028;-75
2022/10/13 14:12:05;;;;;;;16.40;10.30;;;;;;;16.42;72.29;99076.81;214739;1309;25444;-74
2022/10/13 14:17:07;;;;;;;17.80;11.60;;;;;;;16.35;72.76;99073.20;214549;1309;24298;-74
2022/10/13 14:22:09;;;;;;;17.20;11.20;;;;;;;16.33;73.24;99077.16;214691;1309;23935;-74
2022/10/13 14:27:11;;;;;;;29.10;16.00;;;;;;;16.31;73.71;99077.29;214570;1309;22473;-74
2022/10/13 14:32:12;;;;;;;17.60;12.00;;;;;;;16.24;73.29;99075.39;214643;1309;24259;-74
2022/10/13 14:37:14;;;;;;;19.60;10.60;;;;;;;16.13;73.32;99075.39;214507;1309;24833;-74
2022/10/13 14:42:16;;;;;;;18.50;12.20;;;;;;;16.04;73.68;99069.73;214695;1309;22480;-74
2022/10/13 14:47:18;;;;;;;19.80;12.10;;;;;;;15.97;73.98;99073.41;214704;1309;22543;-73
2022/10/13 14:52:20;;;;;;;18.90;12.40;;;;;;;15.88;74.27;99071.17;214492;1309;23257;-74
2022/10/13 14:57:22;;;;;;;18.70;12.20;;;;;;;15.77;74.60;99066.89;214598;1309;22474;-75
2022/10/13 15:02:24;;;;;;;22.40;12.80;;;;;;;15.63;74.87;99058.37;214696;1309;22507;-74
2022/10/13 15:07:27;;;;;;;20.10;11.90;;;;;;;15.50;75.16;99056.15;214380;1309;22497;-74
2022/10/13 15:12:28;;;;;;;23.40;12.90;;;;;;;15.36;75.48;99061.67;214400;1309;22489;-75
2022/10/13 15:17:32;;;;;;;24.70;13.70;;;;;;;15.23;75.72;99057.62;214579;1308;22638;-74
2022/10/13 15:22:33;;;;;;;29.10;16.40;;;;;;;15.08;76.06;99052.13;214694;1309;22491;-74
2022/10/13 15:27:38;;;;;;;24.20;14.30;;;;;;;14.91;76.48;99050.38;214554;1309;24341;-74
2022/10/13 15:32:42;;;;;;;22.80;13.50;;;;;;;14.73;76.96;99047.94;214665;1309;22587;-76
2022/10/13 15:37:44;;;;;;;21.30;13.60;;;;;;;14.54;77.32;99043.83;214647;1309;24389;-73
2022/10/13 15:42:46;;;;;;;24.70;15.20;;;;;;;14.34;77.64;99038.39;214653;1309;22484;-73
2022/10/13 15:47:50;;;;;;;24.60;14.30;;;;;;;14.14;77.83;99034.79;214448;1309;22490;-73
2022/10/13 15:52:52;;;;;;;28.10;15.20;;;;;;;13.94;78.37;99033.94;214489;1311;24301;-74
2022/10/13 15:57:54;;;;;;;23.90;15.10;;;;;;;13.75;78.69;99035.65;214604;1309;22517;-74
2022/10/13 16:02:57;;;;;;;28.60;16.50;;;;;;;13.54;78.95;99031.57;214512;1309;22506;-73
2022/10/13 16:07:58;;;;;;;29.00;14.90;;;;;;;13.33;79.37;99040.53;214567;1309;24407;-73
2022/10/13 16:13:00;;;;;;;27.70;15.40;;;;;;;13.13;79.82;99043.17;214599;1309;22482;-74
2022/10/13 16:18:02;;;;;;;27.70;16.30;;;;;;;12.93;80.24;99038.60;214655;1309;22607;-77
2022/10/13 16:23:04;;;;;;;34.40;18.10;;;;;;;12.74;80.55;99038.55;214476;1309;22545;-74
2022/10/13 16:28:06;;;;;;;33.30;18.30;;;;;;;12.57;80.93;99040.53;214720;1309;22462;-74
2022/10/13 16:33:07;;;;;;;40.00;20.10;;;;;;;12.39;81.29;99039.96;214760;1309;23233;-74
2022/10/13 16:38:10;;;;;;;35.30;19.20;;;;;;;12.22;81.72;99041.61;214647;1309;22504;-73
2022/10/13 16:43:12;;;;;;;37.30;21.80;;;;;;;12.05;82.00;99041.39;214532;1309;22484;-74
2022/10/13 16:48:16;;;;;;;45.40;21.40;;;;;;;11.90;82.33;99040.55;214282;1308;22921;-73
2022/10/13 16:53:18;;;;;;;37.10;20.80;;;;;;;11.76;82.88;99038.55;214547;1309;25776;-72
2022/10/13 16:58:20;;;;;;;42.40;22.90;;;;;;;11.63;83.18;99039.14;214683;1309;22518;-74
2022/10/13 17:03:21;;;;;;;44.00;23.50;;;;;;;11.51;83.40;99042.63;214368;1309;22517;-74
2022/10/13 17:08:25;;;;;;;41.00;22.10;;;;;;;11.41;83.99;99041.52;214487;1304;22467;-73
2022/10/13 17:13:27;;;;;;;45.70;23.80;;;;;;;11.38;84.45;99043.80;214651;1309;22471;-74
2022/10/13 17:18:29;;;;;;;45.60;24.20;;;;;;;11.36;84.76;99042.55;214651;1309;22513;-74
2022/10/13 17:23:31;;;;;;;49.10;25.40;;;;;;;11.34;84.98;99038.16;214564;1309;24241;-74
2022/10/13 17:28:35;;;;;;;60.50;29.90;;;;;;;11.33;85.16;99036.73;214726;1309;25373;-74
2022/10/13 17:33:38;;;;;;;65.60;33.00;;;;;;;11.30;85.31;99034.73;214521;1309;22469;-74
2022/10/13 17:38:41;;;;;;;62.70;32.00;;;;;;;11.25;85.52;99034.51;214701;1309;22485;-74
2022/10/13 17:43:43;;;;;;;57.70;31.00;;;;;;;11.20;85.80;99034.35;214563;1309;22602;-74
2022/10/13 17:48:45;;;;;;;57.80;31.30;;;;;;;11.18;85.88;99036.70;214621;1309;24526;-74
2022/10/13 17:53:48;;;;;;;58.10;31.20;;;;;;;11.16;86.20;99036.44;214709;1309;23904;-72
2022/10/13 17:58:50;;;;;;;58.60;30.10;;;;;;;11.18;86.51;99036.48;214483;1309;22468;-73
2022/10/13 18:03:55;;;;;;;56.90;29.60;;;;;;;11.23;86.63;99037.93;214595;1309;22479;-74
2022/10/13 18:09:04;;;;;;;53.40;28.70;;;;;;;11.30;86.96;99033.70;214732;1309;22489;-74
2022/10/13 18:14:07;;;;;;;58.40;27.90;;;;;;;11.40;87.25;99040.98;214669;1309;25533;-75
2022/10/13 18:19:12;;;;;;;47.60;27.10;;;;;;;11.51;87.29;99036.46;214395;1309;24545;-73
2022/10/13 18:24:14;;;;;;;45.90;25.90;;;;;;;11.60;87.20;99031.62;214537;1309;25218;-74
2022/10/13 18:29:16;;;;;;;51.60;26.40;;;;;;;11.66;87.30;99028.47;214555;1309;24487;-74
2022/10/13 18:34:17;;;;;;;44.50;24.40;;;;;;;11.71;87.35;99027.29;214629;1309;25439;-75
2022/10/13 18:39:24;;;;;;;44.00;24.50;;;;;;;11.72;87.13;99025.67;214452;1309;22706;-72
2022/10/13 18:44:26;;;;;;;46.10;25.80;;;;;;;11.68;87.04;99026.09;214668;1309;22494;-73
2022/10/13 18:49:31;;;;;;;48.90;26.70;;;;;;;11.62;87.10;99030.89;214576;1309;26401;-73
2022/10/13 18:54:33;;;;;;;57.60;28.50;;;;;;;11.58;86.94;99025.53;214591;1309;23346;-74
2022/10/13 18:59:37;;;;;;;50.60;27.40;;;;;;;11.56;86.99;99017.23;214535;1309;22463;-74
2022/10/13 19:04:39;;;;;;;50.90;25.80;;;;;;;11.49;86.87;99018.45;214469;1309;24229;-72
2022/10/13 19:09:41;;;;;;;46.40;23.70;;;;;;;11.41;86.68;99021.17;214403;1309;25386;-74
2022/10/13 19:14:43;;;;;;;43.10;23.80;;;;;;;11.36;86.81;99022.60;214479;1300;25043;-74
2022/10/13 19:19:46;;;;;;;44.00;24.10;;;;;;;11.29;86.57;99020.64;214465;1309;25498;-74
2022/10/13 19:24:48;;;;;;;45.10;23.50;;;;;;;11.19;86.61;99015.65;214742;1309;22491;-73
2022/10/13 19:29:53;;;;;;;42.20;23.40;;;;;;;11.06;86.47;99014.23;214437;1309;22479;-73
2022/10/13 19:34:56;;;;;;;43.60;23.50;;;;;;;10.93;86.40;99010.41;214832;1309;22476;-73
2022/10/13 19:39:57;;;;;;;46.60;23.30;;;;;;;10.79;86.67;99010.30;214542;1302;22454;-73
2022/10/13 19:45:03;;;;;;;44.20;24.50;;;;;;;10.65;86.54;99009.58;214557;1310;26047;-74
2022/10/13 19:50:05;;;;;;;45.30;23.80;;;;;;;10.51;86.89;99011.80;214456;1309;26414;-74
2022/10/13 19:55:08;;;;;;;45.50;22.60;;;;;;;10.38;86.94;99012.92;214419;1309;22597;-74
2022/10/13 20:00:10;;;;;;;43.10;22.40;;;;;;;10.26;87.04;99014.72;214321;1309;25378;-73
2022/10/13 20:05:13;;;;;;;38.30;20.10;;;;;;;10.17;87.27;99012.05;214687;1307;22469;-74
2022/10/13 20:10:14;;;;;;;48.80;24.10;;;;;;;10.08;87.27;99010.66;214493;1309;22537;-75
2022/10/13 20:15:16;;;;;;;39.10;19.50;;;;;;;10.03;87.24;99007.70;214606;1309;25211;-73
2022/10/13 20:20:18;;;;;;;45.00;24.00;;;;;;;9.99;87.42;99007.47;214383;1308;22476;-74
2022/10/13 20:25:23;;;;;;;42.40;21.30;;;;;;;9.93;87.41;99012.91;214412;1309;24335;-74
2022/10/13 20:30:25;;;;;;;45.30;22.90;;;;;;;9.91;87.48;99011.32;214441;1309;25227;-73
2022/10/13 20:35:27;;;;;;;42.40;23.20;;;;;;;9.88;87.60;99010.00;214672;1309;25465;-73
2022/10/13 20:40:28;;;;;;;41.60;22.40;;;;;;;9.85;87.84;99005.09;214507;1309;22828;-74
2022/10/13 20:45:30;;;;;;;45.00;23.40;;;;;;;9.84;87.93;98996.92;214532;1309;22739;-74
2022/10/13 20:50:32;;;;;;;42.90;22.90;;;;;;;9.80;87.72;98996.77;214543;1309;22715;-73
2022/10/13 20:55:34;;;;;;;47.50;24.10;;;;;;;9.70;87.97;99001.87;214510;1309;22593;-74
2022/10/13 21:00:42;;;;;;;57.80;27.90;;;;;;;9.58;88.09;98997.87;214336;1309;25304;-73
2022/10/13 21:05:45;;;;;;;64.00;32.30;;;;;;;9.52;88.36;98988.16;214690;1302;22488;-74
2022/10/13 21:10:49;;;;;;;56.20;30.60;;;;;;;9.50;88.45;98989.62;214475;1309;22453;-74
2022/10/13 21:15:52;;;;;;;61.80;30.20;;;;;;;9.51;88.45;98989.78;214616;1309;22527;-75
2022/10/13 21:21:01;;;;;;;56.10;28.90;;;;;;;9.55;88.55;98993.61;214613;1309;24141;-73
2022/10/13 21:26:05;;;;;;;52.70;27.10;;;;;;;9.60;88.54;98990.85;214856;1309;25289;-73
2022/10/13 21:31:10;;;;;;;53.00;26.70;;;;;;;9.62;88.50;98991.59;214645;1309;22674;-73
2022/10/13 21:36:13;;;;;;;56.10;28.60;;;;;;;9.58;88.56;98990.81;214494;1309;22460;-74
2022/10/13 21:41:15;;;;;;;56.40;28.50;;;;;;;9.53;88.62;98982.05;214612;1309;25333;-75
2022/10/13 21:46:25;;;;;;;43.10;24.80;;;;;;;9.49;88.65;98980.96;214554;1309;25417;-74
2022/10/13 21:51:29;;;;;;;;;;;;;;;9.47;88.87;98979.21;214534;1309;22595;-73
2022/10/13 21:56:32;;;;;;;45.50;23.00;;;;;;;9.51;89.00;98984.33;214616;1309;22507;-73
2022/10/13 22:01:34;;;;;;;43.90;23.40;;;;;;;9.55;89.25;98990.29;214458;1309;22550;-73
2022/10/13 22:06:43;;;;;;;41.20;24.00;;;;;;;9.60;89.26;98991.98;214382;1309;23006;-74
2022/10/13 22:11:44;;;;;;;56.90;28.20;;;;;;;9.64;89.18;98994.84;214572;1309;24411;-74
2022/10/13 22:16:50;;;;;;;51.00;26.10;;;;;;;9.66;89.26;98986.48;214455;1309;25283;-73
2022/10/13 22:21:51;;;;;;;60.40;30.50;;;;;;;9.69;89.38;98982.67;214668;1303;22531;-73
2022/10/13 22:26:54;;;;;;;57.80;30.30;;;;;;;9.70;89.42;98979.45;214457;1309;22541;-74
2022/10/13 22:31:57;;;;;;;55.70;29.50;;;;;;;9.72;89.57;98977.57;214553;1309;22601;-73
2022/10/13 22:36:58;;;;;;;55.40;29.40;;;;;;;9.74;89.68;98972.52;214451;1309;22484;-73
2022/10/13 22:42:01;;;;;;;57.60;29.20;;;;;;;9.75;89.70;98965.67;214419;1309;22469;-74
2022/10/13 22:47:04;;;;;;;53.50;27.50;;;;;;;9.74;89.44;98958.02;214482;1309;23327;-73
2022/10/13 22:52:06;;;;;;;57.60;29.90;;;;;;;9.71;89.49;98953.06;214605;1309;24288;-74
2022/10/13 22:57:08;;;;;;;60.30;32.10;;;;;;;9.67;89.48;98948.60;214536;1309;24348;-74
2022/10/13 23:02:09;;;;;;;52.30;30.00;;;;;;;9.61;89.52;98942.48;214694;1309;22500;-74
2022/10/13 23:07:12;;;;;;;53.40;27.80;;;;;;;9.52;89.48;98939.98;214723;1307;22475;-73
2022/10/13 23:12:17;;;;;;;56.90;28.80;;;;;;;9.40;89.59;98942.35;214599;1309;22477;-73
2022/10/13 23:17:19;;;;;;;52.20;26.80;;;;;;;9.28;89.45;98944.89;214667;1309;22467;-73